<?xml version="1.0" encoding="UTF-8" standalone="no" ?>
<gpx xmlns="http://www.topografix.com/GPX/1/1" xmlns:xsi="http://www.w3.org/2001/XMLSchema-instance" xsi:schemaLocation="http://www.topografix.com/GPX/1/1 http://www.topografix.com/GPX/1/1/gpx.xsd" version="1.1" creator="VisuGPX - https://www.visugpx.com">
  <metadata>
    <name>Chialvetta - Chiappera : 13 juil. 2020 09:12:51</name>
    <desc><![CDATA[Un tour dans le VAL MAIRA 2020 : 5ème étape en passant par le col Ciarbonet]]></desc>
  </metadata>
  <trk>
    <name><![CDATA[Chialvetta - Chiappera : 13 juil. 2020 09:12:51]]></name>
    <trkseg>
      <trkpt lat="44.44967" lon="6.99985">
        <ele>1496</ele>
        <time>2020-07-13T07:12:51Z</time>
      </trkpt>
      <trkpt lat="44.44929" lon="6.99954">
        <ele>1487</ele>
        <time>2020-07-13T07:17:05Z</time>
      </trkpt>
      <trkpt lat="44.44868" lon="6.99876">
        <ele>1497</ele>
        <time>2020-07-13T07:18:29Z</time>
      </trkpt>
      <trkpt lat="44.44831" lon="6.9984">
        <ele>1514</ele>
        <time>2020-07-13T07:19:28Z</time>
      </trkpt>
      <trkpt lat="44.44794" lon="6.99806">
        <ele>1512</ele>
        <time>2020-07-13T07:20:30Z</time>
      </trkpt>
      <trkpt lat="44.44762" lon="6.99766">
        <ele>1506</ele>
        <time>2020-07-13T07:21:33Z</time>
      </trkpt>
      <trkpt lat="44.44726" lon="6.99728">
        <ele>1525</ele>
        <time>2020-07-13T07:22:38Z</time>
      </trkpt>
      <trkpt lat="44.44695" lon="6.99684">
        <ele>1520</ele>
        <time>2020-07-13T07:23:23Z</time>
      </trkpt>
      <trkpt lat="44.44667" lon="6.99638">
        <ele>1530</ele>
        <time>2020-07-13T07:24:45Z</time>
      </trkpt>
      <trkpt lat="44.44627" lon="6.99529">
        <ele>1533</ele>
        <time>2020-07-13T07:26:02Z</time>
      </trkpt>
      <trkpt lat="44.44614" lon="6.99471">
        <ele>1530</ele>
        <time>2020-07-13T07:28:13Z</time>
      </trkpt>
      <trkpt lat="44.44594" lon="6.99414">
        <ele>1542</ele>
        <time>2020-07-13T07:28:46Z</time>
      </trkpt>
      <trkpt lat="44.44563" lon="6.99376">
        <ele>1548</ele>
        <time>2020-07-13T07:29:43Z</time>
      </trkpt>
      <trkpt lat="44.44523" lon="6.99334">
        <ele>1551</ele>
        <time>2020-07-13T07:30:12Z</time>
      </trkpt>
      <trkpt lat="44.4448" lon="6.9935">
        <ele>1556</ele>
        <time>2020-07-13T07:31:11Z</time>
      </trkpt>
      <trkpt lat="44.44437" lon="6.99359">
        <ele>1562</ele>
        <time>2020-07-13T07:32:00Z</time>
      </trkpt>
      <trkpt lat="44.44398" lon="6.99335">
        <ele>1562</ele>
        <time>2020-07-13T07:33:01Z</time>
      </trkpt>
      <trkpt lat="44.44359" lon="6.99314">
        <ele>1578</ele>
        <time>2020-07-13T07:33:55Z</time>
      </trkpt>
      <trkpt lat="44.44317" lon="6.99331">
        <ele>1591</ele>
        <time>2020-07-13T07:35:01Z</time>
      </trkpt>
      <trkpt lat="44.44275" lon="6.99341">
        <ele>1600</ele>
        <time>2020-07-13T07:35:51Z</time>
      </trkpt>
      <trkpt lat="44.44234" lon="6.99319">
        <ele>1601</ele>
        <time>2020-07-13T07:36:49Z</time>
      </trkpt>
      <trkpt lat="44.4419" lon="6.99313">
        <ele>1612</ele>
        <time>2020-07-13T07:37:39Z</time>
      </trkpt>
      <trkpt lat="44.44146" lon="6.99314">
        <ele>1594</ele>
        <time>2020-07-13T07:38:42Z</time>
      </trkpt>
      <trkpt lat="44.44103" lon="6.99314">
        <ele>1604</ele>
        <time>2020-07-13T07:39:31Z</time>
      </trkpt>
      <trkpt lat="44.44072" lon="6.99269">
        <ele>1606</ele>
        <time>2020-07-13T07:40:13Z</time>
      </trkpt>
      <trkpt lat="44.44045" lon="6.9922">
        <ele>1601</ele>
        <time>2020-07-13T07:41:21Z</time>
      </trkpt>
      <trkpt lat="44.4402" lon="6.99169">
        <ele>1605</ele>
        <time>2020-07-13T07:42:03Z</time>
      </trkpt>
      <trkpt lat="44.43986" lon="6.99128">
        <ele>1623</ele>
        <time>2020-07-13T07:42:55Z</time>
      </trkpt>
      <trkpt lat="44.43975" lon="6.99067">
        <ele>1627</ele>
        <time>2020-07-13T07:43:48Z</time>
      </trkpt>
      <trkpt lat="44.43947" lon="6.9902">
        <ele>1644</ele>
        <time>2020-07-13T07:50:40Z</time>
      </trkpt>
      <trkpt lat="44.43884" lon="6.98941">
        <ele>1634</ele>
        <time>2020-07-13T07:52:21Z</time>
      </trkpt>
      <trkpt lat="44.43866" lon="6.98884">
        <ele>1644</ele>
        <time>2020-07-13T07:53:36Z</time>
      </trkpt>
      <trkpt lat="44.43834" lon="6.98841">
        <ele>1658</ele>
        <time>2020-07-13T07:54:47Z</time>
      </trkpt>
      <trkpt lat="44.43811" lon="6.98788">
        <ele>1661</ele>
        <time>2020-07-13T07:56:10Z</time>
      </trkpt>
      <trkpt lat="44.43776" lon="6.98755">
        <ele>1675</ele>
        <time>2020-07-13T07:57:02Z</time>
      </trkpt>
      <trkpt lat="44.43748" lon="6.98709">
        <ele>1678</ele>
        <time>2020-07-13T07:58:09Z</time>
      </trkpt>
      <trkpt lat="44.43714" lon="6.98667">
        <ele>1692</ele>
        <time>2020-07-13T07:59:14Z</time>
      </trkpt>
      <trkpt lat="44.43686" lon="6.98621">
        <ele>1696</ele>
        <time>2020-07-13T08:00:49Z</time>
      </trkpt>
      <trkpt lat="44.43662" lon="6.9857">
        <ele>1712</ele>
        <time>2020-07-13T08:02:07Z</time>
      </trkpt>
      <trkpt lat="44.43625" lon="6.98535">
        <ele>1723</ele>
        <time>2020-07-13T08:03:41Z</time>
      </trkpt>
      <trkpt lat="44.43617" lon="6.98474">
        <ele>1724</ele>
        <time>2020-07-13T08:05:31Z</time>
      </trkpt>
      <trkpt lat="44.43589" lon="6.98425">
        <ele>1745</ele>
        <time>2020-07-13T08:06:35Z</time>
      </trkpt>
      <trkpt lat="44.43553" lon="6.98392">
        <ele>1742</ele>
        <time>2020-07-13T08:07:39Z</time>
      </trkpt>
      <trkpt lat="44.43519" lon="6.98352">
        <ele>1750</ele>
        <time>2020-07-13T08:08:47Z</time>
      </trkpt>
      <trkpt lat="44.43495" lon="6.98299">
        <ele>1765</ele>
        <time>2020-07-13T08:10:35Z</time>
      </trkpt>
      <trkpt lat="44.43452" lon="6.98285">
        <ele>1767</ele>
        <time>2020-07-13T08:11:58Z</time>
      </trkpt>
      <trkpt lat="44.4341" lon="6.98263">
        <ele>1799</ele>
        <time>2020-07-13T08:13:34Z</time>
      </trkpt>
      <trkpt lat="44.43366" lon="6.98251">
        <ele>1811</ele>
        <time>2020-07-13T08:15:08Z</time>
      </trkpt>
      <trkpt lat="44.43323" lon="6.98245">
        <ele>1799</ele>
        <time>2020-07-13T08:27:13Z</time>
      </trkpt>
      <trkpt lat="44.43337" lon="6.98186">
        <ele>1801</ele>
        <time>2020-07-13T08:28:03Z</time>
      </trkpt>
      <trkpt lat="44.43362" lon="6.98135">
        <ele>1811</ele>
        <time>2020-07-13T08:28:53Z</time>
      </trkpt>
      <trkpt lat="44.43397" lon="6.98098">
        <ele>1834</ele>
        <time>2020-07-13T08:29:44Z</time>
      </trkpt>
      <trkpt lat="44.43441" lon="6.98104">
        <ele>1819</ele>
        <time>2020-07-13T08:32:17Z</time>
      </trkpt>
      <trkpt lat="44.43485" lon="6.98094">
        <ele>1825</ele>
        <time>2020-07-13T08:32:51Z</time>
      </trkpt>
      <trkpt lat="44.43525" lon="6.9812">
        <ele>1829</ele>
        <time>2020-07-13T08:33:52Z</time>
      </trkpt>
      <trkpt lat="44.43569" lon="6.98134">
        <ele>1829</ele>
        <time>2020-07-13T08:34:44Z</time>
      </trkpt>
      <trkpt lat="44.43613" lon="6.98139">
        <ele>1835</ele>
        <time>2020-07-13T08:35:31Z</time>
      </trkpt>
      <trkpt lat="44.43655" lon="6.9816">
        <ele>1838</ele>
        <time>2020-07-13T08:36:27Z</time>
      </trkpt>
      <trkpt lat="44.43698" lon="6.9814">
        <ele>1847</ele>
        <time>2020-07-13T08:37:12Z</time>
      </trkpt>
      <trkpt lat="44.43741" lon="6.98153">
        <ele>1851</ele>
        <time>2020-07-13T08:38:04Z</time>
      </trkpt>
      <trkpt lat="44.43773" lon="6.9811">
        <ele>1866</ele>
        <time>2020-07-13T08:40:51Z</time>
      </trkpt>
      <trkpt lat="44.43807" lon="6.98149">
        <ele>1868</ele>
        <time>2020-07-13T08:41:35Z</time>
      </trkpt>
      <trkpt lat="44.43849" lon="6.98169">
        <ele>1865</ele>
        <time>2020-07-13T08:43:09Z</time>
      </trkpt>
      <trkpt lat="44.43893" lon="6.9817">
        <ele>1862</ele>
        <time>2020-07-13T08:43:52Z</time>
      </trkpt>
      <trkpt lat="44.43938" lon="6.98171">
        <ele>1867</ele>
        <time>2020-07-13T08:44:27Z</time>
      </trkpt>
      <trkpt lat="44.43983" lon="6.9817">
        <ele>1877</ele>
        <time>2020-07-13T08:45:11Z</time>
      </trkpt>
      <trkpt lat="44.44018" lon="6.9814">
        <ele>1869</ele>
        <time>2020-07-13T08:45:48Z</time>
      </trkpt>
      <trkpt lat="44.44062" lon="6.98133">
        <ele>1874</ele>
        <time>2020-07-13T08:46:31Z</time>
      </trkpt>
      <trkpt lat="44.44105" lon="6.98117">
        <ele>1880</ele>
        <time>2020-07-13T08:47:16Z</time>
      </trkpt>
      <trkpt lat="44.44149" lon="6.98112">
        <ele>1887</ele>
        <time>2020-07-13T08:49:32Z</time>
      </trkpt>
      <trkpt lat="44.4419" lon="6.98136">
        <ele>1893</ele>
        <time>2020-07-13T08:51:13Z</time>
      </trkpt>
      <trkpt lat="44.44226" lon="6.98106">
        <ele>1892</ele>
        <time>2020-07-13T08:51:57Z</time>
      </trkpt>
      <trkpt lat="44.44271" lon="6.98099">
        <ele>1900</ele>
        <time>2020-07-13T08:52:53Z</time>
      </trkpt>
      <trkpt lat="44.44303" lon="6.98143">
        <ele>1905</ele>
        <time>2020-07-13T08:53:55Z</time>
      </trkpt>
      <trkpt lat="44.44339" lon="6.9818">
        <ele>1910</ele>
        <time>2020-07-13T08:55:02Z</time>
      </trkpt>
      <trkpt lat="44.44382" lon="6.9817">
        <ele>1914</ele>
        <time>2020-07-13T08:56:04Z</time>
      </trkpt>
      <trkpt lat="44.44419" lon="6.98203">
        <ele>1922</ele>
        <time>2020-07-13T08:56:53Z</time>
      </trkpt>
      <trkpt lat="44.44422" lon="6.98141">
        <ele>1928</ele>
        <time>2020-07-13T08:59:06Z</time>
      </trkpt>
      <trkpt lat="44.44378" lon="6.98129">
        <ele>1940</ele>
        <time>2020-07-13T09:00:06Z</time>
      </trkpt>
      <trkpt lat="44.44339" lon="6.98098">
        <ele>1947</ele>
        <time>2020-07-13T09:01:01Z</time>
      </trkpt>
      <trkpt lat="44.4434" lon="6.98035">
        <ele>1940</ele>
        <time>2020-07-13T09:01:59Z</time>
      </trkpt>
      <trkpt lat="44.44332" lon="6.97973">
        <ele>1952</ele>
        <time>2020-07-13T09:02:53Z</time>
      </trkpt>
      <trkpt lat="44.44349" lon="6.97916">
        <ele>1960</ele>
        <time>2020-07-13T09:03:46Z</time>
      </trkpt>
      <trkpt lat="44.44389" lon="6.97892">
        <ele>1967</ele>
        <time>2020-07-13T09:04:50Z</time>
      </trkpt>
      <trkpt lat="44.44431" lon="6.97877">
        <ele>1981</ele>
        <time>2020-07-13T09:06:30Z</time>
      </trkpt>
      <trkpt lat="44.44462" lon="6.9783">
        <ele>1986</ele>
        <time>2020-07-13T09:07:27Z</time>
      </trkpt>
      <trkpt lat="44.44486" lon="6.97779">
        <ele>1988</ele>
        <time>2020-07-13T09:08:15Z</time>
      </trkpt>
      <trkpt lat="44.44499" lon="6.97721">
        <ele>1993</ele>
        <time>2020-07-13T09:09:11Z</time>
      </trkpt>
      <trkpt lat="44.44516" lon="6.97663">
        <ele>1997</ele>
        <time>2020-07-13T09:10:04Z</time>
      </trkpt>
      <trkpt lat="44.44504" lon="6.97603">
        <ele>2001</ele>
        <time>2020-07-13T09:11:00Z</time>
      </trkpt>
      <trkpt lat="44.44533" lon="6.97558">
        <ele>2015</ele>
        <time>2020-07-13T09:12:22Z</time>
      </trkpt>
      <trkpt lat="44.44574" lon="6.97536">
        <ele>2032</ele>
        <time>2020-07-13T09:19:28Z</time>
      </trkpt>
      <trkpt lat="44.44609" lon="6.975">
        <ele>2032</ele>
        <time>2020-07-13T09:20:36Z</time>
      </trkpt>
      <trkpt lat="44.4464" lon="6.97454">
        <ele>2039</ele>
        <time>2020-07-13T09:21:44Z</time>
      </trkpt>
      <trkpt lat="44.44683" lon="6.97473">
        <ele>2050</ele>
        <time>2020-07-13T09:23:11Z</time>
      </trkpt>
      <trkpt lat="44.44717" lon="6.97512">
        <ele>2053</ele>
        <time>2020-07-13T09:24:06Z</time>
      </trkpt>
      <trkpt lat="44.44723" lon="6.9745">
        <ele>2060</ele>
        <time>2020-07-13T09:25:40Z</time>
      </trkpt>
      <trkpt lat="44.44726" lon="6.97388">
        <ele>2064</ele>
        <time>2020-07-13T09:26:32Z</time>
      </trkpt>
      <trkpt lat="44.44752" lon="6.97337">
        <ele>2079</ele>
        <time>2020-07-13T09:27:59Z</time>
      </trkpt>
      <trkpt lat="44.4475" lon="6.97274">
        <ele>2086</ele>
        <time>2020-07-13T09:29:31Z</time>
      </trkpt>
      <trkpt lat="44.44779" lon="6.97225">
        <ele>2100</ele>
        <time>2020-07-13T09:30:59Z</time>
      </trkpt>
      <trkpt lat="44.44822" lon="6.97209">
        <ele>2105</ele>
        <time>2020-07-13T09:32:02Z</time>
      </trkpt>
      <trkpt lat="44.44866" lon="6.97204">
        <ele>2114</ele>
        <time>2020-07-13T09:32:52Z</time>
      </trkpt>
      <trkpt lat="44.44907" lon="6.97179">
        <ele>2117</ele>
        <time>2020-07-13T09:34:15Z</time>
      </trkpt>
      <trkpt lat="44.4494" lon="6.97137">
        <ele>2136</ele>
        <time>2020-07-13T09:36:21Z</time>
      </trkpt>
      <trkpt lat="44.4492" lon="6.97082">
        <ele>2145</ele>
        <time>2020-07-13T09:37:54Z</time>
      </trkpt>
      <trkpt lat="44.44894" lon="6.97031">
        <ele>2149</ele>
        <time>2020-07-13T09:38:54Z</time>
      </trkpt>
      <trkpt lat="44.44932" lon="6.97">
        <ele>2153</ele>
        <time>2020-07-13T09:39:57Z</time>
      </trkpt>
      <trkpt lat="44.44949" lon="6.96943">
        <ele>2162</ele>
        <time>2020-07-13T09:40:55Z</time>
      </trkpt>
      <trkpt lat="44.44974" lon="6.96891">
        <ele>2165</ele>
        <time>2020-07-13T09:42:43Z</time>
      </trkpt>
      <trkpt lat="44.45018" lon="6.96898">
        <ele>2178</ele>
        <time>2020-07-13T09:43:37Z</time>
      </trkpt>
      <trkpt lat="44.45039" lon="6.96954">
        <ele>2180</ele>
        <time>2020-07-13T09:44:33Z</time>
      </trkpt>
      <trkpt lat="44.45039" lon="6.97016">
        <ele>2185</ele>
        <time>2020-07-13T09:45:21Z</time>
      </trkpt>
      <trkpt lat="44.45081" lon="6.97036">
        <ele>2187</ele>
        <time>2020-07-13T09:46:08Z</time>
      </trkpt>
      <trkpt lat="44.45119" lon="6.97066">
        <ele>2190</ele>
        <time>2020-07-13T09:46:58Z</time>
      </trkpt>
      <trkpt lat="44.45161" lon="6.97052">
        <ele>2195</ele>
        <time>2020-07-13T09:47:43Z</time>
      </trkpt>
      <trkpt lat="44.45203" lon="6.97076">
        <ele>2201</ele>
        <time>2020-07-13T09:48:28Z</time>
      </trkpt>
      <trkpt lat="44.45244" lon="6.97099">
        <ele>2201</ele>
        <time>2020-07-13T09:51:47Z</time>
      </trkpt>
      <trkpt lat="44.45279" lon="6.97061">
        <ele>2191</ele>
        <time>2020-07-13T10:12:20Z</time>
      </trkpt>
      <trkpt lat="44.45311" lon="6.97019">
        <ele>2182</ele>
        <time>2020-07-13T10:13:10Z</time>
      </trkpt>
      <trkpt lat="44.45346" lon="6.96983">
        <ele>2171</ele>
        <time>2020-07-13T10:14:14Z</time>
      </trkpt>
      <trkpt lat="44.4538" lon="6.96942">
        <ele>2157</ele>
        <time>2020-07-13T10:15:34Z</time>
      </trkpt>
      <trkpt lat="44.45413" lon="6.969">
        <ele>2137</ele>
        <time>2020-07-13T10:17:25Z</time>
      </trkpt>
      <trkpt lat="44.45443" lon="6.96855">
        <ele>2127</ele>
        <time>2020-07-13T10:19:39Z</time>
      </trkpt>
      <trkpt lat="44.45462" lon="6.96799">
        <ele>2118</ele>
        <time>2020-07-13T10:21:03Z</time>
      </trkpt>
      <trkpt lat="44.45489" lon="6.9675">
        <ele>2104</ele>
        <time>2020-07-13T10:22:51Z</time>
      </trkpt>
      <trkpt lat="44.45516" lon="6.96701">
        <ele>2091</ele>
        <time>2020-07-13T10:23:37Z</time>
      </trkpt>
      <trkpt lat="44.45556" lon="6.96676">
        <ele>2081</ele>
        <time>2020-07-13T10:24:51Z</time>
      </trkpt>
      <trkpt lat="44.45609" lon="6.96576">
        <ele>2063</ele>
        <time>2020-07-13T10:26:29Z</time>
      </trkpt>
      <trkpt lat="44.45634" lon="6.96526">
        <ele>2060</ele>
        <time>2020-07-13T10:28:17Z</time>
      </trkpt>
      <trkpt lat="44.45708" lon="6.96462">
        <ele>2041</ele>
        <time>2020-07-13T10:29:45Z</time>
      </trkpt>
      <trkpt lat="44.45745" lon="6.96428">
        <ele>2029</ele>
        <time>2020-07-13T10:31:02Z</time>
      </trkpt>
      <trkpt lat="44.45764" lon="6.96374">
        <ele>2014</ele>
        <time>2020-07-13T10:32:05Z</time>
      </trkpt>
      <trkpt lat="44.45783" lon="6.96317">
        <ele>2007</ele>
        <time>2020-07-13T10:32:59Z</time>
      </trkpt>
      <trkpt lat="44.45821" lon="6.96288">
        <ele>1994</ele>
        <time>2020-07-13T10:33:44Z</time>
      </trkpt>
      <trkpt lat="44.45852" lon="6.96245">
        <ele>1989</ele>
        <time>2020-07-13T10:34:33Z</time>
      </trkpt>
      <trkpt lat="44.4589" lon="6.96215">
        <ele>1988</ele>
        <time>2020-07-13T10:35:28Z</time>
      </trkpt>
      <trkpt lat="44.45924" lon="6.96175">
        <ele>1967</ele>
        <time>2020-07-13T10:36:39Z</time>
      </trkpt>
      <trkpt lat="44.45945" lon="6.96119">
        <ele>1959</ele>
        <time>2020-07-13T10:37:24Z</time>
      </trkpt>
      <trkpt lat="44.45965" lon="6.96064">
        <ele>1959</ele>
        <time>2020-07-13T10:38:23Z</time>
      </trkpt>
      <trkpt lat="44.45995" lon="6.96019">
        <ele>1956</ele>
        <time>2020-07-13T10:39:16Z</time>
      </trkpt>
      <trkpt lat="44.46027" lon="6.95977">
        <ele>1947</ele>
        <time>2020-07-13T10:40:39Z</time>
      </trkpt>
      <trkpt lat="44.46034" lon="6.95853">
        <ele>1947</ele>
        <time>2020-07-13T10:42:18Z</time>
      </trkpt>
      <trkpt lat="44.46056" lon="6.95798">
        <ele>1935</ele>
        <time>2020-07-13T10:44:41Z</time>
      </trkpt>
      <trkpt lat="44.46129" lon="6.95733">
        <ele>1932</ele>
        <time>2020-07-13T10:46:31Z</time>
      </trkpt>
      <trkpt lat="44.46139" lon="6.95673">
        <ele>1928</ele>
        <time>2020-07-13T10:47:47Z</time>
      </trkpt>
      <trkpt lat="44.46166" lon="6.95624">
        <ele>1929</ele>
        <time>2020-07-13T10:48:37Z</time>
      </trkpt>
      <trkpt lat="44.46203" lon="6.9559">
        <ele>1932</ele>
        <time>2020-07-13T10:49:24Z</time>
      </trkpt>
      <trkpt lat="44.46246" lon="6.9558">
        <ele>1939</ele>
        <time>2020-07-13T10:50:31Z</time>
      </trkpt>
      <trkpt lat="44.46288" lon="6.9556">
        <ele>1939</ele>
        <time>2020-07-13T10:51:22Z</time>
      </trkpt>
      <trkpt lat="44.46327" lon="6.9554">
        <ele>1938</ele>
        <time>2020-07-13T10:52:50Z</time>
      </trkpt>
      <trkpt lat="44.46369" lon="6.95528">
        <ele>1935</ele>
        <time>2020-07-13T10:53:40Z</time>
      </trkpt>
      <trkpt lat="44.4641" lon="6.95503">
        <ele>1934</ele>
        <time>2020-07-13T10:54:31Z</time>
      </trkpt>
      <trkpt lat="44.46448" lon="6.95474">
        <ele>1937</ele>
        <time>2020-07-13T10:55:47Z</time>
      </trkpt>
      <trkpt lat="44.46489" lon="6.95447">
        <ele>1944</ele>
        <time>2020-07-13T10:56:44Z</time>
      </trkpt>
      <trkpt lat="44.46533" lon="6.95437">
        <ele>1940</ele>
        <time>2020-07-13T10:57:28Z</time>
      </trkpt>
      <trkpt lat="44.46575" lon="6.95418">
        <ele>1951</ele>
        <time>2020-07-13T10:58:35Z</time>
      </trkpt>
      <trkpt lat="44.46614" lon="6.95394">
        <ele>1953</ele>
        <time>2020-07-13T10:59:22Z</time>
      </trkpt>
      <trkpt lat="44.46659" lon="6.95395">
        <ele>1955</ele>
        <time>2020-07-13T11:00:27Z</time>
      </trkpt>
      <trkpt lat="44.4666" lon="6.95335">
        <ele>1944</ele>
        <time>2020-07-13T11:08:05Z</time>
      </trkpt>
      <trkpt lat="44.46665" lon="6.95273">
        <ele>1940</ele>
        <time>2020-07-13T11:08:47Z</time>
      </trkpt>
      <trkpt lat="44.46682" lon="6.95216">
        <ele>1930</ele>
        <time>2020-07-13T11:09:44Z</time>
      </trkpt>
      <trkpt lat="44.46709" lon="6.95166">
        <ele>1927</ele>
        <time>2020-07-13T11:10:25Z</time>
      </trkpt>
      <trkpt lat="44.46742" lon="6.95123">
        <ele>1914</ele>
        <time>2020-07-13T11:11:12Z</time>
      </trkpt>
      <trkpt lat="44.46759" lon="6.95067">
        <ele>1912</ele>
        <time>2020-07-13T11:11:55Z</time>
      </trkpt>
      <trkpt lat="44.46784" lon="6.95016">
        <ele>1910</ele>
        <time>2020-07-13T11:12:51Z</time>
      </trkpt>
      <trkpt lat="44.46794" lon="6.94955">
        <ele>1911</ele>
        <time>2020-07-13T11:13:36Z</time>
      </trkpt>
      <trkpt lat="44.46796" lon="6.94895">
        <ele>1888</ele>
        <time>2020-07-13T11:14:31Z</time>
      </trkpt>
      <trkpt lat="44.46827" lon="6.94849">
        <ele>1873</ele>
        <time>2020-07-13T11:15:58Z</time>
      </trkpt>
      <trkpt lat="44.46858" lon="6.94806">
        <ele>1861</ele>
        <time>2020-07-13T11:16:54Z</time>
      </trkpt>
      <trkpt lat="44.46887" lon="6.94758">
        <ele>1837</ele>
        <time>2020-07-13T11:18:37Z</time>
      </trkpt>
      <trkpt lat="44.46888" lon="6.94697">
        <ele>1825</ele>
        <time>2020-07-13T11:20:01Z</time>
      </trkpt>
      <trkpt lat="44.4693" lon="6.94682">
        <ele>1814</ele>
        <time>2020-07-13T11:21:15Z</time>
      </trkpt>
      <trkpt lat="44.46946" lon="6.94624">
        <ele>1801</ele>
        <time>2020-07-13T11:22:47Z</time>
      </trkpt>
      <trkpt lat="44.46975" lon="6.94576">
        <ele>1772</ele>
        <time>2020-07-13T11:25:06Z</time>
      </trkpt>
      <trkpt lat="44.47012" lon="6.94609">
        <ele>1762</ele>
        <time>2020-07-13T11:26:35Z</time>
      </trkpt>
      <trkpt lat="44.47055" lon="6.94619">
        <ele>1741</ele>
        <time>2020-07-13T11:28:51Z</time>
      </trkpt>
      <trkpt lat="44.47063" lon="6.94557">
        <ele>1715</ele>
        <time>2020-07-13T11:30:33Z</time>
      </trkpt>
      <trkpt lat="44.47044" lon="6.94501">
        <ele>1705</ele>
        <time>2020-07-13T11:31:14Z</time>
      </trkpt>
      <trkpt lat="44.4706" lon="6.94442">
        <ele>1690</ele>
        <time>2020-07-13T11:32:38Z</time>
      </trkpt>
      <trkpt lat="44.47074" lon="6.94382">
        <ele>1683</ele>
        <time>2020-07-13T11:33:36Z</time>
      </trkpt>
      <trkpt lat="44.47105" lon="6.94341">
        <ele>1679</ele>
        <time>2020-07-13T11:34:13Z</time>
      </trkpt>
      <trkpt lat="44.47122" lon="6.94285">
        <ele>1676</ele>
        <time>2020-07-13T11:34:59Z</time>
      </trkpt>
      <trkpt lat="44.47137" lon="6.94226">
        <ele>1670</ele>
        <time>2020-07-13T11:40:52Z</time>
      </trkpt>
      <trkpt lat="44.47199" lon="6.94137">
        <ele>1659</ele>
        <time>2020-07-13T11:42:27Z</time>
      </trkpt>
      <trkpt lat="44.47238" lon="6.94106">
        <ele>1640</ele>
        <time>2020-07-13T11:43:56Z</time>
      </trkpt>
      <trkpt lat="44.47257" lon="6.94051">
        <ele>1641</ele>
        <time>2020-07-13T11:44:34Z</time>
      </trkpt>
      <trkpt lat="44.47257" lon="6.93988">
        <ele>1640</ele>
        <time>2020-07-13T11:45:14Z</time>
      </trkpt>
      <trkpt lat="44.47256" lon="6.93926">
        <ele>1637</ele>
        <time>2020-07-13T11:45:53Z</time>
      </trkpt>
      <trkpt lat="44.47267" lon="6.93867">
        <ele>1624</ele>
        <time>2020-07-13T11:46:33Z</time>
      </trkpt>
      <trkpt lat="44.47308" lon="6.93887">
        <ele>1621</ele>
        <time>2020-07-13T12:24:51Z</time>
      </trkpt>
      <trkpt lat="44.47315" lon="6.93948">
        <ele>1622</ele>
        <time>2020-07-13T12:26:54Z</time>
      </trkpt>
      <trkpt lat="44.47308" lon="6.94011">
        <ele>1623</ele>
        <time>2020-07-13T12:27:46Z</time>
      </trkpt>
      <trkpt lat="44.47327" lon="6.94066">
        <ele>1615</ele>
        <time>2020-07-13T12:29:12Z</time>
      </trkpt>
      <trkpt lat="44.47366" lon="6.94038">
        <ele>1611</ele>
        <time>2020-07-13T12:29:53Z</time>
      </trkpt>
      <trkpt lat="44.47394" lon="6.93989">
        <ele>1610</ele>
        <time>2020-07-13T12:30:34Z</time>
      </trkpt>
      <trkpt lat="44.47417" lon="6.93936">
        <ele>1597</ele>
        <time>2020-07-13T12:31:08Z</time>
      </trkpt>
      <trkpt lat="44.47438" lon="6.93881">
        <ele>1594</ele>
        <time>2020-07-13T12:31:45Z</time>
      </trkpt>
      <trkpt lat="44.47469" lon="6.93835">
        <ele>1588</ele>
        <time>2020-07-13T12:32:18Z</time>
      </trkpt>
      <trkpt lat="44.47497" lon="6.93788">
        <ele>1568</ele>
        <time>2020-07-13T12:38:11Z</time>
      </trkpt>
      <trkpt lat="44.47515" lon="6.93726">
        <ele>1582</ele>
        <time>2020-07-13T12:38:39Z</time>
      </trkpt>
      <trkpt lat="44.47536" lon="6.93674">
        <ele>1586</ele>
        <time>2020-07-13T12:39:22Z</time>
      </trkpt>
      <trkpt lat="44.4757" lon="6.93633">
        <ele>1588</ele>
        <time>2020-07-13T12:40:00Z</time>
      </trkpt>
      <trkpt lat="44.47576" lon="6.93573">
        <ele>1580</ele>
        <time>2020-07-13T12:40:43Z</time>
      </trkpt>
      <trkpt lat="44.47603" lon="6.93523">
        <ele>1570</ele>
        <time>2020-07-13T12:47:03Z</time>
      </trkpt>
      <trkpt lat="44.47645" lon="6.93502">
        <ele>1578</ele>
        <time>2020-07-13T12:47:34Z</time>
      </trkpt>
      <trkpt lat="44.47685" lon="6.93493">
        <ele>1578</ele>
        <time>2020-07-13T12:48:24Z</time>
      </trkpt>
      <trkpt lat="44.47718" lon="6.93452">
        <ele>1574</ele>
        <time>2020-07-13T12:49:18Z</time>
      </trkpt>
      <trkpt lat="44.4775" lon="6.93411">
        <ele>1572</ele>
        <time>2020-07-13T12:49:52Z</time>
      </trkpt>
      <trkpt lat="44.47783" lon="6.93371">
        <ele>1564</ele>
        <time>2020-07-13T12:50:31Z</time>
      </trkpt>
      <trkpt lat="44.47794" lon="6.93312">
        <ele>1572</ele>
        <time>2020-07-13T12:51:07Z</time>
      </trkpt>
      <trkpt lat="44.47819" lon="6.93262">
        <ele>1577</ele>
        <time>2020-07-13T12:51:45Z</time>
      </trkpt>
      <trkpt lat="44.4785" lon="6.93217">
        <ele>1562</ele>
        <time>2020-07-13T12:52:41Z</time>
      </trkpt>
      <trkpt lat="44.47881" lon="6.93173">
        <ele>1557</ele>
        <time>2020-07-13T12:53:53Z</time>
      </trkpt>
      <trkpt lat="44.47914" lon="6.93133">
        <ele>1563</ele>
        <time>2020-07-13T12:54:23Z</time>
      </trkpt>
      <trkpt lat="44.47947" lon="6.93093">
        <ele>1563</ele>
        <time>2020-07-13T12:54:56Z</time>
      </trkpt>
      <trkpt lat="44.47978" lon="6.93048">
        <ele>1564</ele>
        <time>2020-07-13T12:55:34Z</time>
      </trkpt>
      <trkpt lat="44.48009" lon="6.93003">
        <ele>1563</ele>
        <time>2020-07-13T12:56:19Z</time>
      </trkpt>
      <trkpt lat="44.4804" lon="6.92958">
        <ele>1570</ele>
        <time>2020-07-13T12:56:59Z</time>
      </trkpt>
      <trkpt lat="44.48068" lon="6.9291">
        <ele>1571</ele>
        <time>2020-07-13T12:57:50Z</time>
      </trkpt>
      <trkpt lat="44.481" lon="6.92867">
        <ele>1569</ele>
        <time>2020-07-13T12:58:28Z</time>
      </trkpt>
      <trkpt lat="44.48129" lon="6.92821">
        <ele>1566</ele>
        <time>2020-07-13T12:59:01Z</time>
      </trkpt>
      <trkpt lat="44.48146" lon="6.92763">
        <ele>1568</ele>
        <time>2020-07-13T12:59:59Z</time>
      </trkpt>
      <trkpt lat="44.48163" lon="6.92706">
        <ele>1558</ele>
        <time>2020-07-13T13:00:39Z</time>
      </trkpt>
      <trkpt lat="44.48185" lon="6.92653">
        <ele>1572</ele>
        <time>2020-07-13T13:01:20Z</time>
      </trkpt>
      <trkpt lat="44.48211" lon="6.92602">
        <ele>1578</ele>
        <time>2020-07-13T13:02:19Z</time>
      </trkpt>
      <trkpt lat="44.48244" lon="6.92559">
        <ele>1580</ele>
        <time>2020-07-13T13:03:12Z</time>
      </trkpt>
      <trkpt lat="44.48283" lon="6.92531">
        <ele>1586</ele>
        <time>2020-07-13T13:03:48Z</time>
      </trkpt>
      <trkpt lat="44.48319" lon="6.92504">
        <ele>1580</ele>
        <time>2020-07-13T13:04:29Z</time>
      </trkpt>
      <trkpt lat="44.48362" lon="6.92491">
        <ele>1572</ele>
        <time>2020-07-13T13:05:17Z</time>
      </trkpt>
      <trkpt lat="44.48404" lon="6.92475">
        <ele>1581</ele>
        <time>2020-07-13T13:05:49Z</time>
      </trkpt>
      <trkpt lat="44.48441" lon="6.92448">
        <ele>1569</ele>
        <time>2020-07-13T13:06:28Z</time>
      </trkpt>
      <trkpt lat="44.48477" lon="6.92415">
        <ele>1579</ele>
        <time>2020-07-13T13:07:06Z</time>
      </trkpt>
      <trkpt lat="44.48519" lon="6.92404">
        <ele>1573</ele>
        <time>2020-07-13T13:07:56Z</time>
      </trkpt>
      <trkpt lat="44.48559" lon="6.92387">
        <ele>1590</ele>
        <time>2020-07-13T13:08:47Z</time>
      </trkpt>
      <trkpt lat="44.48599" lon="6.92412">
        <ele>1597</ele>
        <time>2020-07-13T13:11:06Z</time>
      </trkpt>
      <trkpt lat="44.48639" lon="6.92436">
        <ele>1594</ele>
        <time>2020-07-13T13:11:56Z</time>
      </trkpt>
      <trkpt lat="44.48683" lon="6.92448">
        <ele>1599</ele>
        <time>2020-07-13T13:12:49Z</time>
      </trkpt>
      <trkpt lat="44.48727" lon="6.9244">
        <ele>1603</ele>
        <time>2020-07-13T13:13:19Z</time>
      </trkpt>
      <trkpt lat="44.48764" lon="6.92476">
        <ele>1598</ele>
        <time>2020-07-13T13:14:12Z</time>
      </trkpt>
      <trkpt lat="44.48807" lon="6.9249">
        <ele>1593</ele>
        <time>2020-07-13T13:20:09Z</time>
      </trkpt>
      <trkpt lat="44.4885" lon="6.92496">
        <ele>1597</ele>
        <time>2020-07-13T13:20:55Z</time>
      </trkpt>
      <trkpt lat="44.48895" lon="6.92492">
        <ele>1601</ele>
        <time>2020-07-13T13:21:39Z</time>
      </trkpt>
      <trkpt lat="44.48938" lon="6.92475">
        <ele>1606</ele>
        <time>2020-07-13T13:22:29Z</time>
      </trkpt>
      <trkpt lat="44.48982" lon="6.92466">
        <ele>1605</ele>
        <time>2020-07-13T13:23:17Z</time>
      </trkpt>
      <trkpt lat="44.49024" lon="6.92446">
        <ele>1608</ele>
        <time>2020-07-13T13:24:01Z</time>
      </trkpt>
      <trkpt lat="44.49066" lon="6.92425">
        <ele>1609</ele>
        <time>2020-07-13T13:24:46Z</time>
      </trkpt>
      <trkpt lat="44.49109" lon="6.92413">
        <ele>1619</ele>
        <time>2020-07-13T13:25:25Z</time>
      </trkpt>
      <trkpt lat="44.49152" lon="6.92399">
        <ele>1620</ele>
        <time>2020-07-13T13:26:05Z</time>
      </trkpt>
      <trkpt lat="44.49188" lon="6.92364">
        <ele>1620</ele>
        <time>2020-07-13T13:27:06Z</time>
      </trkpt>
      <trkpt lat="44.49231" lon="6.92377">
        <ele>1616</ele>
        <time>2020-07-13T13:28:03Z</time>
      </trkpt>
      <trkpt lat="44.4923" lon="6.9244">
        <ele>1612</ele>
        <time>2020-07-13T13:29:05Z</time>
      </trkpt>
      <trkpt lat="44.49211" lon="6.92495">
        <ele>1612</ele>
        <time>2020-07-13T13:29:46Z</time>
      </trkpt>
      <trkpt lat="44.4918" lon="6.92531">
        <ele>1624</ele>
        <time>2020-07-13T13:30:53Z</time>
      </trkpt>
      <trkpt lat="44.49172" lon="6.92652">
        <ele>1616</ele>
        <time>2020-07-13T13:32:15Z</time>
      </trkpt>
      <trkpt lat="44.49165" lon="6.92617">
        <ele>1609</ele>
        <time>2020-07-13T13:56:39Z</time>
      </trkpt>
      <trkpt lat="44.49165" lon="6.92617">
        <ele>1609</ele>
        <time>2020-07-13T13:56:44Z</time>
      </trkpt>
    </trkseg>
  </trk>
</gpx>